Latest Coastal Weather Observations for Cocos Island

IDW60701

Issued at 1:33 am WST Thursday 3 September 2026 (issued every 10 minutes, with the page automatically refreshed every 10 minutes)

About coastal observations | Map of coastal stations | Coastal observations for WA | Marine services | Other Formats
Station Details ID: 200284 Name: COCOS ISLAND AIRPORT Lat: -12.19 Lon: 96.83 Height: 3.0 m
Data from the previous 72 hours. | See also: Recent months at Cocos Island
Date/Time
WST
Wind Sea
Height
m
Swell Vis
km
Cloud Weather Temp
°C
Press
MSL
hPa
Rain since
9am
mm
Dir  Spd
kts
Gust
kts
Height
m
Period
s
Dir
03/01:30am ENE 12 16 - - - - 10 Mostly clear - 26.7 1015.6 0.0
03/01:00am ENE 10 16 - - - - 10 Partly cloudy - 26.8 1015.6 0.0
03/12:30am E 14 18 - - - - 10 - - 26.9 1015.7 0.0
03/12:00am E 10 13 - - - - 10 Partly cloudy - 26.9 1015.8 0.0
 
Date/Time
WST
Wind Sea
Height
m
Swell Vis
km
Cloud Weather Temp
°C
Press
MSL
hPa
Rain since
9am
mm
Dir  Spd
kts
Gust
kts
Height
m
Period
s
Dir
02/11:30pm E 11 17 - - - - 10 Mostly clear - 26.9 1015.9 0.0
02/11:00pm E 12 16 - - - - 10 Mostly clear - 27.2 1016.0 0.0
02/10:30pm E 10 14 - - - - 10 - - 27.0 1015.9 0.0
02/10:00pm ESE 8 12 - - - - 10 Mostly clear - 27.0 1015.8 0.0
02/09:30pm ESE 7 11 - - - - 10 Mostly clear - 26.9 1015.7 0.0
02/09:00pm E 7 11 - - - - 10 Mostly clear - 27.0 1015.4 0.0
02/08:30pm ESE 8 11 - - - - 10 Partly cloudy - 27.1 1015.1 0.0
02/08:00pm E 9 14 - - - - 10 Partly cloudy - 27.2 1014.8 0.0
02/07:30pm E 13 17 - - - - 10 Partly cloudy - 27.4 1014.5 0.0
02/07:00pm ENE 8 14 - - - - 10 Partly cloudy - 27.7 1014.2 0.0
02/06:30pm ENE 8 15 - - - - 10 Partly cloudy - 28.4 1013.9 0.0
02/06:00pm ENE 10 16 - - - - 10 Mostly clear - 28.8 1013.7 0.0
02/05:30pm ENE 11 17 - - - - 10 Partly cloudy - 29.3 1013.6 0.0
02/05:00pm ENE 8 16 - - - - 10 Partly cloudy - 29.7 1013.8 0.0
02/04:30pm ENE 11 15 - - - - 10 Partly cloudy - 28.7 1014.1 0.0
02/04:00pm E 14 18 - - - - 10 Partly cloudy - 28.9 1014.4 0.0
02/03:30pm E 11 16 - - - - 10 Partly cloudy - 29.0 1014.5 0.0
02/03:00pm ENE 9 14 - - - - 10 Partly cloudy - 31.0 1014.8 0.0
02/02:30pm ENE 9 14 - - - - 10 Partly cloudy - 29.5 1015.1 0.0
02/02:00pm E 11 15 - - - - 10 Mostly clear - 28.8 1015.3 0.0
02/01:30pm ENE 10 14 - - - - 10 Mostly clear - 30.4 1015.8 0.0
02/01:00pm ENE 9 15 - - - - 10 Partly cloudy - 30.7 1016.1 0.0
02/12:30pm ENE 11 16 - - - - 10 Mostly clear - 29.6 1016.4 0.0
02/12:00pm ENE 11 15 - - - - 10 Mostly clear - 29.1 1016.7 0.0
02/11:30am ENE 10 15 - - - - 10 Partly cloudy - 28.2 1016.9 0.0
02/11:00am ENE 7 13 - - - - 10 Cloudy - 30.1 1016.7 0.0
02/10:30am ENE 10 14 - - - - 10 Partly cloudy - 29.0 1016.5 0.0
02/10:00am ENE 11 15 - - - - 10 Mostly clear - 28.6 1016.3 0.0
02/09:30am ENE 9 13 - - - - 10 Partly cloudy - 28.3 1016.0 0.0
02/09:00am ENE 7 11 - - - - 10 Mostly clear - 27.6 1015.7 0.0
02/08:30am ENE 7 11 - - - - 10 Mostly clear - 26.1 1015.6 0.0
02/08:00am ENE 5 8 - - - - 10 - - 25.9 1015.4 0.0
02/07:30am NE 5 9 - - - - 10 Mostly clear - 25.7 1015.3 0.0
02/07:00am NE 5 8 - - - - 10 Mostly clear - 25.9 1015.0 0.0
02/06:30am ENE 5 8 - - - - 10 - - 25.6 1015.0 0.0
02/06:00am ENE 5 7 - - - - 10 Mostly clear - 25.7 1015.0 0.0
02/05:30am ENE 5 9 - - - - 10 Partly cloudy - 25.8 1015.0 0.0
02/05:00am ENE 5 8 - - - - 10 Mostly clear - 25.8 1015.1 0.0
02/04:30am NE 4 7 - - - - 10 - - 25.7 1015.2 0.0
02/04:00am NE 4 8 - - - - 10 - - 25.7 1015.2 0.0
02/03:30am ENE 6 10 - - - - 10 Mostly clear - 25.8 1015.4 0.0
02/03:00am ENE 6 12 - - - - 10 Mostly clear - 26.0 1015.5 0.0
02/02:30am ENE 4 7 - - - - 10 Partly cloudy - 26.2 1015.7 0.0
02/02:00am ENE 7 11 - - - - 10 Mostly clear - 26.2 1016.1 0.0
02/01:30am E 10 12 - - - - 10 - - 26.6 1016.4 0.0
02/01:00am E 9 13 - - - - 10 Partly cloudy - 26.7 1016.6 0.0
02/12:30am ENE 5 10 - - - - 10 Partly cloudy - 26.6 1016.7 0.0
02/12:00am ESE 5 8 - - - - 10 Mostly clear - 26.6 1016.7 0.0
 
Date/Time
WST
Wind Sea
Height
m
Swell Vis
km
Cloud Weather Temp
°C
Press
MSL
hPa
Rain since
9am
mm
Dir  Spd
kts
Gust
kts
Height
m
Period
s
Dir
01/11:30pm E 7 9 - - - - 10 Mostly clear - 26.6 1016.9 0.0
01/11:00pm ESE 5 8 - - - - 10 Partly cloudy - 26.7 1016.8 0.0
01/10:30pm ESE 6 8 - - - - 10 Partly cloudy - 26.8 1016.8 0.0
01/10:00pm E 7 11 - - - - 10 Mostly clear - 26.8 1016.6 0.0
01/09:30pm E 9 12 - - - - 10 Mostly clear - 26.9 1016.3 0.0
01/09:00pm E 7 11 - - - - 10 Partly cloudy - 26.8 1016.0 0.0
01/08:30pm E 9 13 - - - - 10 Partly cloudy - 27.0 1015.6 0.0
01/08:00pm E 7 12 - - - - 10 Partly cloudy - 26.9 1015.3 0.0
01/07:30pm ESE 7 11 - - - - 10 - - 26.9 1015.0 0.0
01/07:00pm ESE 8 11 - - - - 10 Mostly clear - 27.2 1014.8 0.0
01/06:30pm ESE 8 13 - - - - 10 Mostly clear - 27.6 1014.9 0.0
01/06:00pm ESE 11 14 - - - - 10 Mostly clear - 27.8 1014.6 0.0
01/05:30pm ESE 10 15 - - - - 10 Mostly clear - 27.7 1014.4 0.0
01/05:00pm ESE 9 16 - - - - 10 Partly cloudy - 28.4 1014.4 0.0
01/04:30pm ESE 9 13 - - - - 10 Partly cloudy - 28.6 1014.5 0.0
01/04:00pm ESE 10 15 - - - - 10 Partly cloudy - 28.2 1014.5 0.0
01/03:30pm ESE 10 16 - - - - 10 Partly cloudy - 28.4 1014.6 0.0
01/03:00pm ESE 9 14 - - - - 10 Mostly clear - 28.6 1014.9 0.0
01/02:30pm ESE 9 14 - - - - 10 Partly cloudy - 28.1 1015.1 0.0
01/02:00pm ESE 10 14 - - - - 10 Cloudy - 28.6 1015.6 0.0
01/01:30pm ESE 11 17 - - - - 10 Partly cloudy - 28.5 1016.0 0.0
01/01:00pm ESE 9 15 - - - - 10 Partly cloudy - 28.6 1016.2 0.0
01/12:30pm ESE 11 16 - - - - 10 Partly cloudy - 28.1 1016.6 0.0
01/12:00pm ESE 9 15 - - - - 10 Partly cloudy - 28.2 1017.0 0.0
01/11:30am ESE 9 13 - - - - 10 Mostly clear - 28.0 1017.1 0.0
01/11:00am ESE 9 14 - - - - 10 Partly cloudy - 28.3 1017.1 0.0
01/10:30am ESE 8 13 - - - - 10 Mostly clear - 27.9 1016.9 0.0
01/10:00am SE 12 15 - - - - 10 Partly cloudy - 26.9 1016.7 0.0
01/09:30am ESE 11 15 - - - - 10 Partly cloudy - 27.0 1016.4 0.0
01/09:00am SE 12 14 - - - - 10 Partly cloudy - 26.4 1016.1 0.0
01/08:30am ESE 11 17 - - - - 10 Mostly clear - 26.3 1016.0 0.0
01/08:00am ESE 10 15 - - - - 10 Partly cloudy - 25.9 1015.8 0.0
01/07:30am ESE 11 16 - - - - 10 Mostly clear - 25.7 1015.6 0.0
01/07:00am ESE 8 11 - - - - 10 Mostly clear - 25.6 1015.2 0.0
01/06:30am ESE 8 14 - - - - 10 Partly cloudy - 25.6 1015.0 0.0
01/06:00am ESE 8 12 - - - - 10 Partly cloudy - 25.5 1015.0 0.0
01/05:30am ESE 9 14 - - - - 10 Mostly clear - 25.6 1015.0 0.0
01/05:00am ESE 9 15 - - - - 10 Mostly clear - 25.6 1015.2 0.0
01/04:30am ESE 9 15 - - - - 10 Partly cloudy - 25.6 1015.1 0.0
01/04:00am ESE 10 16 - - - - 10 Partly cloudy - 25.7 1015.2 0.0
01/03:30am ESE 9 14 - - - - 10 Partly cloudy - 25.7 1015.3 0.0
01/03:00am ESE 10 15 - - - - 10 Mostly clear - 25.8 1015.7 0.0
01/02:30am ESE 10 15 - - - - 10 Partly cloudy - 25.8 1016.0 0.0
01/02:00am ESE 9 15 - - - - 10 Partly cloudy - 26.0 1016.2 0.0
01/01:30am ESE 10 15 - - - - 10 Partly cloudy - 26.2 1016.7 0.0
01/01:00am ESE 11 17 - - - - 10 Partly cloudy - 26.2 1016.9 0.0
01/12:30am ESE 11 15 - - - - 10 Mostly clear - 26.3 1016.8 0.0
01/12:00am ESE 10 16 - - - - 10 Partly cloudy - 26.3 1016.8 0.0
 
Date/Time
WST
Wind Sea
Height
m
Swell Vis
km
Cloud Weather Temp
°C
Press
MSL
hPa
Rain since
9am
mm
Dir  Spd
kts
Gust
kts
Height
m
Period
s
Dir
31/11:30pm ESE 11 18 - - - - 10 Mostly clear - 26.5 1016.9 0.0
31/11:00pm ESE 9 14 - - - - 10 Partly cloudy - 26.5 1016.9 0.0
31/10:30pm ESE 9 13 - - - - 10 Partly cloudy - 26.4 1016.7 0.0
31/10:00pm ESE 10 16 - - - - 10 Mostly clear - 26.3 1016.5 0.0
31/09:30pm ESE 10 15 - - - - 10 Partly cloudy - 26.4 1016.3 0.0
31/09:00pm ESE 10 15 - - - - 10 Mostly clear - 26.4 1016.2 0.0
31/08:30pm ESE 10 16 - - - - 10 Mostly clear - 26.4 1015.9 0.0
31/08:00pm ESE 10 15 - - - - 10 - - 26.4 1015.7 0.0
31/07:30pm ESE 10 15 - - - - 10 Mostly clear - 26.5 1015.3 0.0
31/07:00pm ESE 11 17 - - - - 10 Mostly clear - 26.9 1015.2 0.0
31/06:30pm ESE 11 16 - - - - 10 Mostly clear - 27.4 1015.0 0.0
31/06:00pm ESE 11 17 - - - - 10 Mostly clear - 27.6 1015.0 0.0
31/05:30pm ESE 12 17 - - - - 10 - - 27.8 1014.9 0.0
31/05:00pm ESE 12 17 - - - - 10 Mostly clear - 27.8 1014.7 0.0
31/04:30pm ESE 12 20 - - - - 10 - - 28.2 1014.8 0.0
31/04:00pm ESE 13 21 - - - - 10 Mostly clear - 28.4 1015.0 0.0
31/03:30pm ESE 14 20 - - - - 10 Partly cloudy - 28.4 1015.2 0.0
31/03:00pm ESE 13 20 - - - - 10 Partly cloudy - 28.2 1015.3 0.0
31/02:30pm SE 16 20 - - - - 10 Partly cloudy - 28.3 1015.7 0.0
31/02:00pm ESE 12 20 - - - - 10 - - 28.8 1015.9 0.0
31/01:30pm ESE 11 19 - - - - 10 Mostly clear - 28.7 1016.3 0.0
31/01:00pm ESE 12 18 - - - - 10 Mostly clear - 28.6 1016.7 0.0
31/12:30pm ESE 11 17 - - - - 10 Partly cloudy - 28.8 1017.1 0.0
31/12:00pm ESE 11 16 - - - - 10 Partly cloudy - 28.1 1017.4 0.0
31/11:30am ESE 11 17 - - - - 10 Partly cloudy - 28.5 1017.6 0.0
31/11:00am E 11 18 - - - - 10 Mostly clear - 27.9 1017.4 0.2
31/10:30am ESE 11 15 - - - - 10 Partly cloudy - 27.7 1017.2 0.2
31/10:00am E 11 16 - - - - 10 Partly cloudy - 27.6 1016.9 0.2
31/09:30am ESE 9 13 - - - - 10 Mostly clear - 27.8 1016.7 0.2
31/09:00am ESE 9 14 - - - - 10 - - 27.0 1016.2 0.2
31/08:30am ESE 9 14 - - - - 10 Mostly clear - 26.3 1015.9 0.2
31/08:00am ESE 9 14 - - - - 10 Mostly clear - 25.9 1015.6 0.2
31/07:30am ESE 9 15 - - - - 10 Partly cloudy - 25.9 1015.5 0.2
31/07:00am ESE 8 13 - - - - 10 Mostly clear - 25.9 1015.4 0.2
31/06:30am E 9 12 - - - - 10 Mostly clear - 25.8 1015.2 0.2
31/06:00am ESE 8 12 - - - - 10 Partly cloudy - 25.8 1015.1 0.2
31/05:30am ESE 7 10 - - - - 10 Partly cloudy - 25.7 1015.0 0.0
31/05:00am ESE 8 11 - - - - 10 Mostly clear - 25.5 1014.9 0.0
31/04:30am ESE 6 9 - - - - 10 Mostly clear - 25.4 1015.0 0.0
31/04:00am ESE 6 9 - - - - 10 Mostly clear - 25.8 1015.0 0.0
31/03:30am ESE 7 10 - - - - 10 Mostly clear - 25.6 1015.2 0.0
31/03:00am SE 7 9 - - - - 10 Partly cloudy - 25.6 1015.4 0.0
31/02:30am ESE 6 8 - - - - 10 Mostly clear - 25.7 1015.7 0.0
31/02:00am ESE 6 9 - - - - 10 Mostly clear - 25.7 1016.0 0.0

Other formats

Comma delimited format used in spreadsheet applications
http://www.bom.gov.au/fwo/IDW60701/IDW60701.96996.axf

JavaScript Object Notation format (JSON) in row-major order
http://www.bom.gov.au/fwo/IDW60701/IDW60701.96996.json

Data quality

Most of these data are generated automatically and are frequently updated. Quality checks on data are not normally performed. It is possible for incorrect values to appear. Refer to information at About Latest Weather Observations and please check the disclaimer before using these data.